Avondale, Washington
Current Conditions -  °F | °C
As of 11:53 PM on Saturday 22 Nov 2014 (Local Time) from KBFI Reporting Station
Clear Clear  
Wind Chill: 10°   Ceiling: Unl
Heat Index: 10°   Visibility: 10mi
Dew Point:   Wind: 13mph
Humidity: 74%   Direction: 160°SSE
Pressure: 30.13"   Gusts: NA
Location:  47.6833°N, 122.123°W
Report Text: KBFI 230753Z 16011KT 10SM CLR 10/06 A3013 RMK AO2 SLP203 T01000056 401110067
Loading
Personal Weather Stations






























Interactive Weather Map New forecast layout! Learn more

10-Day Weather Forecast

Advertisements
Track Severe Weather on mobile